sensor_id;sensor_type;location;lat;lon;timestamp;pressure;altitude;pressure_sealevel;temperature;humidity
63654;BME280;49809;47.418;19.080;2023-07-30T00:01:55;100069.03;;;20.70;94.43
63654;BME280;49809;47.418;19.080;2023-07-30T00:05:26;100075.19;;;20.70;94.37
63654;BME280;49809;47.418;19.080;2023-07-30T00:08:50;100067.75;;;20.76;94.64
63654;BME280;49809;47.418;19.080;2023-07-30T00:13:18;100072.19;;;20.72;94.87
63654;BME280;49809;47.418;19.080;2023-07-30T00:17:09;100068.19;;;20.78;94.43
63654;BME280;49809;47.418;19.080;2023-07-30T00:21:38;100057.91;;;20.80;93.86
63654;BME280;49809;47.418;19.080;2023-07-30T00:25:20;100065.78;;;20.85;94.35
63654;BME280;49809;47.418;19.080;2023-07-30T00:29:53;100068.94;;;20.87;92.18
63654;BME280;49809;47.418;19.080;2023-07-30T00:34:00;100055.28;;;20.92;91.68
63654;BME280;49809;47.418;19.080;2023-07-30T00:37:44;100046.12;;;20.93;92.52
63654;BME280;49809;47.418;19.080;2023-07-30T00:41:09;100053.41;;;20.93;92.22
63654;BME280;49809;47.418;19.080;2023-07-30T00:44:47;100055.44;;;20.96;91.69
63654;BME280;49809;47.418;19.080;2023-07-30T00:48:22;100040.53;;;21.28;80.94
63654;BME280;49809;47.418;19.080;2023-07-30T01:07:07;100020.66;;;22.19;71.80
63654;BME280;49809;47.418;19.080;2023-07-30T01:10:59;100025.41;;;22.22;71.45
63654;BME280;49809;47.418;19.080;2023-07-30T01:15:23;100033.94;;;22.24;71.39
63654;BME280;49809;47.418;19.080;2023-07-30T01:22:35;100026.53;;;22.21;72.19
63654;BME280;49809;47.418;19.080;2023-07-30T01:26:19;100024.84;;;22.16;72.42
63654;BME280;49809;47.418;19.080;2023-07-30T01:34:11;100001.12;;;22.09;72.30
63654;BME280;49809;47.418;19.080;2023-07-30T01:41:31;99989.22;;;22.10;72.89
63654;BME280;49809;47.418;19.080;2023-07-30T01:45:18;99974.16;;;22.09;72.78
63654;BME280;49809;47.418;19.080;2023-07-30T01:52:43;99972.44;;;21.93;72.99
63654;BME280;49809;47.418;19.080;2023-07-30T01:56:31;99975.78;;;21.90;73.18
63654;BME280;49809;47.418;19.080;2023-07-30T02:00:15;99986.47;;;21.98;72.90
63654;BME280;49809;47.418;19.080;2023-07-30T02:04:01;99983.06;;;21.89;73.46
63654;BME280;49809;47.418;19.080;2023-07-30T02:08:13;99980.81;;;21.79;74.66
63654;BME280;49809;47.418;19.080;2023-07-30T02:12:01;99988.41;;;21.65;75.27
63654;BME280;49809;47.418;19.080;2023-07-30T02:16:01;99997.09;;;21.50;75.57
63654;BME280;49809;47.418;19.080;2023-07-30T02:23:10;99995.69;;;21.32;77.22
63654;BME280;49809;47.418;19.080;2023-07-30T02:30:36;99984.88;;;21.19;78.12
63654;BME280;49809;47.418;19.080;2023-07-30T02:34:27;99985.22;;;21.09;78.46
63654;BME280;49809;47.418;19.080;2023-07-30T02:38:26;99989.72;;;20.97;79.33
63654;BME280;49809;47.418;19.080;2023-07-30T02:42:17;100002.16;;;20.89;79.84
63654;BME280;49809;47.418;19.080;2023-07-30T02:46:11;100004.38;;;20.87;80.36
63654;BME280;49809;47.418;19.080;2023-07-30T02:50:25;100001.66;;;20.87;80.75
63654;BME280;49809;47.418;19.080;2023-07-30T02:54:10;100000.50;;;20.76;81.04
63654;BME280;49809;47.418;19.080;2023-07-30T02:57:47;99998.78;;;20.71;81.61
63654;BME280;49809;47.418;19.080;2023-07-30T03:01:48;100006.06;;;20.71;81.60
63654;BME280;49809;47.418;19.080;2023-07-30T03:05:47;100010.53;;;20.67;81.75
63654;BME280;49809;47.418;19.080;2023-07-30T03:09:49;100014.16;;;20.62;82.61
63654;BME280;49809;47.418;19.080;2023-07-30T03:13:29;100000.53;;;20.67;82.49
63654;BME280;49809;47.418;19.080;2023-07-30T03:17:05;99997.88;;;20.59;82.75
63654;BME280;49809;47.418;19.080;2023-07-30T03:24:39;99986.69;;;20.57;82.87
63654;BME280;49809;47.418;19.080;2023-07-30T03:28:15;100000.13;;;20.57;82.57
63654;BME280;49809;47.418;19.080;2023-07-30T03:31:59;99992.97;;;20.61;83.44
63654;BME280;49809;47.418;19.080;2023-07-30T03:35:46;99994.37;;;20.67;82.89
63654;BME280;49809;47.418;19.080;2023-07-30T03:44:10;100006.06;;;20.71;83.17
63654;BME280;49809;47.418;19.080;2023-07-30T03:47:45;100009.81;;;20.78;82.80
63654;BME280;49809;47.418;19.080;2023-07-30T03:52:10;100017.69;;;20.83;82.51
63654;BME280;49809;47.418;19.080;2023-07-30T03:56:08;100008.56;;;20.97;82.20
63654;BME280;49809;47.418;19.080;2023-07-30T04:00:37;100013.44;;;21.03;81.43
63654;BME280;49809;47.418;19.080;2023-07-30T04:04:33;100023.66;;;21.18;81.10
63654;BME280;49809;47.418;19.080;2023-07-30T04:08:18;100025.41;;;21.35;80.35
63654;BME280;49809;47.418;19.080;2023-07-30T04:12:46;100025.81;;;21.46;80.04
63654;BME280;49809;47.418;19.080;2023-07-30T04:24:01;100029.72;;;21.69;79.45
63654;BME280;49809;47.418;19.080;2023-07-30T04:28:13;100043.63;;;21.59;80.65
63654;BME280;49809;47.418;19.080;2023-07-30T04:33:05;100040.06;;;21.46;81.95
63654;BME280;49809;47.418;19.080;2023-07-30T04:36:33;100036.28;;;21.59;82.05
63654;BME280;49809;47.418;19.080;2023-07-30T04:40:03;100032.47;;;21.81;81.87
63654;BME280;49809;47.418;19.080;2023-07-30T04:43:12;100037.37;;;22.00;81.55
63654;BME280;49809;47.418;19.080;2023-07-30T04:46:27;100046.63;;;22.11;81.00
63654;BME280;49809;47.418;19.080;2023-07-30T04:50:01;100053.22;;;22.14;79.74
63654;BME280;49809;47.418;19.080;2023-07-30T04:54:17;100048.31;;;22.28;77.47
63654;BME280;49809;47.418;19.080;2023-07-30T04:58:43;100041.38;;;22.39;77.18
63654;BME280;49809;47.418;19.080;2023-07-30T05:02:50;100047.22;;;22.53;76.76
63654;BME280;49809;47.418;19.080;2023-07-30T05:06:31;100046.87;;;22.67;76.28
63654;BME280;49809;47.418;19.080;2023-07-30T05:10:16;100051.53;;;22.78;75.38
63654;BME280;49809;47.418;19.080;2023-07-30T05:15:00;100059.62;;;22.78;76.09
63654;BME280;49809;47.418;19.080;2023-07-30T05:18:16;100053.53;;;22.69;75.25
63654;BME280;49809;47.418;19.080;2023-07-30T05:22:38;100054.66;;;22.92;75.01
63654;BME280;49809;47.418;19.080;2023-07-30T05:27:08;100044.41;;;22.98;74.68
63654;BME280;49809;47.418;19.080;2023-07-30T05:31:17;100042.50;;;22.86;74.45
63654;BME280;49809;47.418;19.080;2023-07-30T05:38:45;100041.63;;;23.34;74.25
63654;BME280;49809;47.418;19.080;2023-07-30T05:51:06;100048.84;;;23.30;75.08
63654;BME280;49809;47.418;19.080;2023-07-30T05:55:11;100048.06;;;23.30;74.72
63654;BME280;49809;47.418;19.080;2023-07-30T06:04:26;100049.50;;;23.52;74.77
63654;BME280;49809;47.418;19.080;2023-07-30T06:12:19;100051.09;;;23.96;74.39
63654;BME280;49809;47.418;19.080;2023-07-30T07:34:31;100118.44;;;24.45;74.14
63654;BME280;49809;47.418;19.080;2023-07-30T07:54:37;100107.91;;;22.47;88.50
63654;BME280;49809;47.418;19.080;2023-07-30T07:58:21;100114.44;;;22.13;89.00
63654;BME280;49809;47.418;19.080;2023-07-30T08:02:38;100114.75;;;21.99;90.39
63654;BME280;49809;47.418;19.080;2023-07-30T08:10:30;100124.28;;;21.97;89.51
63654;BME280;49809;47.418;19.080;2023-07-30T08:18:32;100140.94;;;21.90;94.72
63654;BME280;49809;47.418;19.080;2023-07-30T08:22:25;100140.50;;;21.67;96.50
63654;BME280;49809;47.418;19.080;2023-07-30T08:26:19;100149.59;;;21.34;97.09
63654;BME280;49809;47.418;19.080;2023-07-30T08:30:19;100148.59;;;21.09;100.00
63654;BME280;49809;47.418;19.080;2023-07-30T08:34:00;100146.94;;;20.96;100.00
63654;BME280;49809;47.418;19.080;2023-07-30T08:37:33;100153.78;;;20.85;100.00
63654;BME280;49809;47.418;19.080;2023-07-30T08:40:54;100159.19;;;20.76;100.00
63654;BME280;49809;47.418;19.080;2023-07-30T08:44:27;100157.44;;;20.80;100.00
63654;BME280;49809;47.418;19.080;2023-07-30T08:48:03;100154.94;;;20.75;100.00
63654;BME280;49809;47.418;19.080;2023-07-30T08:51:36;100157.44;;;20.80;100.00
63654;BME280;49809;47.418;19.080;2023-07-30T08:55:15;100157.31;;;20.76;100.00
63654;BME280;49809;47.418;19.080;2023-07-30T08:58:51;100154.63;;;20.68;100.00
63654;BME280;49809;47.418;19.080;2023-07-30T09:02:18;100162.50;;;20.73;100.00
63654;BME280;49809;47.418;19.080;2023-07-30T09:06:32;100161.72;;;20.81;100.00
63654;BME280;49809;47.418;19.080;2023-07-30T09:10:45;100164.22;;;20.86;100.00
63654;BME280;49809;47.418;19.080;2023-07-30T09:14:57;100157.78;;;21.08;100.00
63654;BME280;49809;47.418;19.080;2023-07-30T09:22:24;100167.91;;;21.11;100.00
63654;BME280;49809;47.418;19.080;2023-07-30T09:26:29;100158.25;;;21.18;100.00
63654;BME280;49809;47.418;19.080;2023-07-30T09:30:27;100161.69;;;21.28;100.00
63654;BME280;49809;47.418;19.080;2023-07-30T09:34:01;100161.69;;;21.28;100.00
63654;BME280;49809;47.418;19.080;2023-07-30T09:37:22;100156.38;;;21.40;100.00
63654;BME280;49809;47.418;19.080;2023-07-30T09:40:50;100155.97;;;21.50;96.74
63654;BME280;49809;47.418;19.080;2023-07-30T09:44:19;100154.69;;;21.56;96.53
63654;BME280;49809;47.418;19.080;2023-07-30T09:47:40;100156.19;;;21.65;94.33
63654;BME280;49809;47.418;19.080;2023-07-30T09:51:05;100156.78;;;21.71;96.81
63654;BME280;49809;47.418;19.080;2023-07-30T09:54:57;100155.28;;;21.82;97.51
63654;BME280;49809;47.418;19.080;2023-07-30T09:59:00;100156.13;;;21.74;97.34
63654;BME280;49809;47.418;19.080;2023-07-30T10:02:59;100162.25;;;21.62;97.87
63654;BME280;49809;47.418;19.080;2023-07-30T10:06:56;100153.56;;;21.57;99.50
63654;BME280;49809;47.418;19.080;2023-07-30T10:10:33;100154.81;;;21.39;98.06
63654;BME280;49809;47.418;19.080;2023-07-30T10:14:44;100158.69;;;21.20;99.08
63654;BME280;49809;47.418;19.080;2023-07-30T10:18:56;100154.63;;;21.14;98.37
63654;BME280;49809;47.418;19.080;2023-07-30T10:22:45;100159.91;;;21.32;100.00
63654;BME280;49809;47.418;19.080;2023-07-30T10:26:52;100150.44;;;21.25;100.00
63654;BME280;49809;47.418;19.080;2023-07-30T10:31:29;100147.41;;;21.27;100.00
63654;BME280;49809;47.418;19.080;2023-07-30T10:34:47;100155.91;;;21.38;100.00
63654;BME280;49809;47.418;19.080;2023-07-30T10:38:41;100143.28;;;21.59;100.00
63654;BME280;49809;47.418;19.080;2023-07-30T10:42:01;100141.94;;;21.65;100.00
63654;BME280;49809;47.418;19.080;2023-07-30T10:45:50;100140.56;;;21.80;100.00
63654;BME280;49809;47.418;19.080;2023-07-30T10:49:40;100142.06;;;21.89;100.00
63654;BME280;49809;47.418;19.080;2023-07-30T10:53:30;100139.31;;;21.77;97.65
63654;BME280;49809;47.418;19.080;2023-07-30T10:57:03;100136.56;;;22.06;100.00
63654;BME280;49809;47.418;19.080;2023-07-30T11:00:39;100124.50;;;22.37;100.00
63654;BME280;49809;47.418;19.080;2023-07-30T11:04:18;100130.69;;;22.37;96.03
63654;BME280;49809;47.418;19.080;2023-07-30T11:07:38;100133.78;;;22.60;96.99
63654;BME280;49809;47.418;19.080;2023-07-30T11:11:05;100129.28;;;22.64;90.95
63654;BME280;49809;47.418;19.080;2023-07-30T11:14:25;100136.09;;;23.07;93.92
63654;BME280;49809;47.418;19.080;2023-07-30T11:18:07;100129.75;;;23.15;92.58
63654;BME280;49809;47.418;19.080;2023-07-30T11:21:28;100123.56;;;23.51;92.76
63654;BME280;49809;47.418;19.080;2023-07-30T11:25:16;100128.97;;;23.26;88.75
63654;BME280;49809;47.418;19.080;2023-07-30T11:28:46;100111.34;;;23.69;87.35
63654;BME280;49809;47.418;19.080;2023-07-30T11:32:14;100116.31;;;23.95;84.24
63654;BME280;49809;47.418;19.080;2023-07-30T11:35:35;100125.69;;;23.57;86.79
63654;BME280;49809;47.418;19.080;2023-07-30T11:39:16;100132.66;;;23.34;85.47
63654;BME280;49809;47.418;19.080;2023-07-30T11:42:40;100135.84;;;23.12;86.35
63654;BME280;49809;47.418;19.080;2023-07-30T11:46:21;100136.66;;;22.88;86.91
63654;BME280;49809;47.418;19.080;2023-07-30T11:49:56;100131.22;;;23.00;89.15
63654;BME280;49809;47.418;19.080;2023-07-30T11:53:11;100129.69;;;22.99;89.08
63654;BME280;49809;47.418;19.080;2023-07-30T11:56:30;100130.69;;;23.07;89.72
63654;BME280;49809;47.418;19.080;2023-07-30T12:00:08;100137.88;;;23.15;87.79
63654;BME280;49809;47.418;19.080;2023-07-30T12:03:26;100137.00;;;22.99;nan
63654;BME280;49809;47.418;19.080;2023-07-30T12:06:57;100138.87;;;22.86;91.55
63654;BME280;49809;47.418;19.080;2023-07-30T12:10:22;100120.94;;;22.57;90.33
63654;BME280;49809;47.418;19.080;2023-07-30T12:13:57;100128.75;;;22.95;91.42
63654;BME280;49809;47.418;19.080;2023-07-30T12:17:27;100125.59;;;23.05;88.55
63654;BME280;49809;47.418;19.080;2023-07-30T12:20:42;100114.16;;;22.96;88.65
63654;BME280;49809;47.418;19.080;2023-07-30T12:24:12;100118.09;;;22.99;86.83
63654;BME280;49809;47.418;19.080;2023-07-30T12:27:40;100133.84;;;22.96;86.69
63654;BME280;49809;47.418;19.080;2023-07-30T12:30:58;100126.88;;;23.08;88.26
63654;BME280;49809;47.418;19.080;2023-07-30T12:34:23;100120.84;;;23.38;86.07
63654;BME280;49809;47.418;19.080;2023-07-30T12:37:42;100119.84;;;23.31;85.47
63654;BME280;49809;47.418;19.080;2023-07-30T12:41:17;100116.66;;;23.65;82.76
63654;BME280;49809;47.418;19.080;2023-07-30T12:44:49;100107.50;;;23.98;81.73
63654;BME280;49809;47.418;19.080;2023-07-30T12:48:18;100103.00;;;24.45;79.67
63654;BME280;49809;47.418;19.080;2023-07-30T12:51:49;100097.78;;;24.52;79.47
63654;BME280;49809;47.418;19.080;2023-07-30T12:55:23;100096.81;;;24.60;77.94
63654;BME280;49809;47.418;19.080;2023-07-30T12:58:51;100086.22;;;24.55;78.58
63654;BME280;49809;47.418;19.080;2023-07-30T13:02:17;100084.69;;;24.54;78.96
63654;BME280;49809;47.418;19.080;2023-07-30T13:05:55;100071.37;;;25.12;72.63
63654;BME280;49809;47.418;19.080;2023-07-30T13:09:30;100062.53;;;25.34;69.54
63654;BME280;49809;47.418;19.080;2023-07-30T13:13:07;100060.97;;;24.98;68.56
63654;BME280;49809;47.418;19.080;2023-07-30T13:16:41;100048.13;;;25.11;67.50
63654;BME280;49809;47.418;19.080;2023-07-30T13:20:16;100043.41;;;25.27;68.61
63654;BME280;49809;47.418;19.080;2023-07-30T13:23:45;100039.81;;;25.77;66.87
63654;BME280;49809;47.418;19.080;2023-07-30T13:27:20;100030.53;;;26.01;65.74
63654;BME280;49809;47.418;19.080;2023-07-30T13:30:55;100041.66;;;25.35;67.69
63654;BME280;49809;47.418;19.080;2023-07-30T13:34:19;100048.00;;;25.62;66.45
63654;BME280;49809;47.418;19.080;2023-07-30T13:37:45;100048.38;;;25.60;67.01
63654;BME280;49809;47.418;19.080;2023-07-30T13:41:21;100046.59;;;25.68;66.55
63654;BME280;49809;47.418;19.080;2023-07-30T13:44:49;100043.63;;;25.19;67.62
63654;BME280;49809;47.418;19.080;2023-07-30T13:48:25;100040.06;;;25.34;68.47
63654;BME280;49809;47.418;19.080;2023-07-30T13:52:02;100029.09;;;25.27;68.40
63654;BME280;49809;47.418;19.080;2023-07-30T13:55:37;100026.44;;;25.11;69.53
63654;BME280;49809;47.418;19.080;2023-07-30T13:59:16;100013.41;;;25.17;69.96
63654;BME280;49809;47.418;19.080;2023-07-30T14:06:37;100009.59;;;25.56;68.88
63654;BME280;49809;47.418;19.080;2023-07-30T14:10:19;99991.94;;;25.85;68.50
63654;BME280;49809;47.418;19.080;2023-07-30T14:13:39;99998.66;;;25.33;68.24
63654;BME280;49809;47.418;19.080;2023-07-30T14:17:04;99990.78;;;25.47;68.36
63654;BME280;49809;47.418;19.080;2023-07-30T14:20:41;99998.59;;;25.10;70.08
63654;BME280;49809;47.418;19.080;2023-07-30T14:24:19;99997.22;;;25.20;70.41
63654;BME280;49809;47.418;19.080;2023-07-30T14:31:40;99988.09;;;25.28;70.04
63654;BME280;49809;47.418;19.080;2023-07-30T14:35:16;99985.03;;;25.30;70.53
63654;BME280;49809;47.418;19.080;2023-07-30T14:38:38;99981.97;;;25.31;69.30
63654;BME280;49809;47.418;19.080;2023-07-30T14:42:13;99976.75;;;25.23;68.23
63654;BME280;49809;47.418;19.080;2023-07-30T14:53:27;99962.09;;;25.85;64.66
63654;BME280;49809;47.418;19.080;2023-07-30T14:57:12;99971.37;;;25.84;64.43
63654;BME280;49809;47.418;19.080;2023-07-30T15:00:51;99971.47;;;25.91;63.68
63654;BME280;49809;47.418;19.080;2023-07-30T15:04:34;99956.03;;;25.95;64.19
63654;BME280;49809;47.418;19.080;2023-07-30T15:08:23;99955.59;;;25.89;64.79
63654;BME280;49809;47.418;19.080;2023-07-30T15:15:45;99945.47;;;26.09;62.70
63654;BME280;49809;47.418;19.080;2023-07-30T15:19:24;99944.97;;;26.26;62.85
63654;BME280;49809;47.418;19.080;2023-07-30T15:23:10;99936.28;;;26.17;63.00
63654;BME280;49809;47.418;19.080;2023-07-30T15:27:13;99942.97;;;26.50;62.81
63654;BME280;49809;47.418;19.080;2023-07-30T15:30:47;99931.75;;;26.25;62.80
63654;BME280;49809;47.418;19.080;2023-07-30T15:34:30;99933.13;;;26.15;63.62
63654;BME280;49809;47.418;19.080;2023-07-30T15:38:06;99924.78;;;26.01;64.02
63654;BME280;49809;47.418;19.080;2023-07-30T15:41:38;99919.44;;;26.31;63.64
63654;BME280;49809;47.418;19.080;2023-07-30T15:45:17;99913.91;;;26.01;63.38
63654;BME280;49809;47.418;19.080;2023-07-30T15:48:34;99922.06;;;26.01;63.23
63654;BME280;49809;47.418;19.080;2023-07-30T15:52:12;99928.41;;;25.63;64.78
63654;BME280;49809;47.418;19.080;2023-07-30T15:55:36;99924.81;;;25.36;65.83
63654;BME280;49809;47.418;19.080;2023-07-30T15:59:15;99936.28;;;24.91;66.63
63654;BME280;49809;47.418;19.080;2023-07-30T16:02:51;99945.47;;;25.06;66.38
63654;BME280;49809;47.418;19.080;2023-07-30T16:06:31;99942.00;;;24.71;67.80
63654;BME280;49809;47.418;19.080;2023-07-30T16:09:59;99948.75;;;24.61;69.00
63654;BME280;49809;47.418;19.080;2023-07-30T16:13:45;99948.25;;;24.75;68.52
63654;BME280;49809;47.418;19.080;2023-07-30T16:17:17;99949.97;;;24.63;68.08
63654;BME280;49809;47.418;19.080;2023-07-30T16:21:00;99954.00;;;24.54;68.50
63654;BME280;49809;47.418;19.080;2023-07-30T16:24:29;99943.25;;;24.57;69.01
63654;BME280;49809;47.418;19.080;2023-07-30T16:28:07;99939.19;;;24.83;68.49
63654;BME280;49809;47.418;19.080;2023-07-30T16:31:45;99945.75;;;25.01;68.95
63654;BME280;49809;47.418;19.080;2023-07-30T16:35:07;99952.28;;;24.81;69.66
63654;BME280;49809;47.418;19.080;2023-07-30T16:38:41;99956.53;;;24.62;69.68
63654;BME280;49809;47.418;19.080;2023-07-30T16:42:17;99965.00;;;24.45;70.55
63654;BME280;49809;47.418;19.080;2023-07-30T16:45:48;99962.34;;;24.30;70.67
63654;BME280;49809;47.418;19.080;2023-07-30T16:49:24;99954.63;;;24.16;71.43
63654;BME280;49809;47.418;19.080;2023-07-30T16:53:01;99958.66;;;24.22;71.03
63654;BME280;49809;47.418;19.080;2023-07-30T16:56:34;99960.66;;;24.09;71.29
63654;BME280;49809;47.418;19.080;2023-07-30T17:00:11;99968.44;;;23.95;71.71
63654;BME280;49809;47.418;19.080;2023-07-30T17:03:48;99973.19;;;23.70;72.23
63654;BME280;49809;47.418;19.080;2023-07-30T17:07:26;99977.47;;;23.71;72.92
63654;BME280;49809;47.418;19.080;2023-07-30T17:10:57;99981.28;;;23.70;72.82
63654;BME280;49809;47.418;19.080;2023-07-30T17:14:36;99981.16;;;23.51;73.04
63654;BME280;49809;47.418;19.080;2023-07-30T17:18:11;99994.75;;;23.27;74.44
63654;BME280;49809;47.418;19.080;2023-07-30T17:21:40;99998.47;;;23.22;74.45
63654;BME280;49809;47.418;19.080;2023-07-30T17:25:00;100001.12;;;23.34;74.43
63654;BME280;49809;47.418;19.080;2023-07-30T17:28:21;100002.91;;;23.43;74.51
63654;BME280;49809;47.418;19.080;2023-07-30T17:31:52;100019.69;;;23.36;74.38
63654;BME280;49809;47.418;19.080;2023-07-30T17:35:29;100029.28;;;23.21;74.92
63654;BME280;49809;47.418;19.080;2023-07-30T17:38:49;100019.03;;;23.27;74.54
63654;BME280;49809;47.418;19.080;2023-07-30T17:42:07;100019.44;;;23.13;74.86
63654;BME280;49809;47.418;19.080;2023-07-30T17:45:40;100015.81;;;23.09;75.29
63654;BME280;49809;47.418;19.080;2023-07-30T17:49:11;100018.00;;;23.04;75.67
63654;BME280;49809;47.418;19.080;2023-07-30T17:52:28;100011.66;;;23.00;76.55
63654;BME280;49809;47.418;19.080;2023-07-30T17:55:52;100020.25;;;22.89;76.63
63654;BME280;49809;47.418;19.080;2023-07-30T17:59:27;100024.44;;;22.75;77.60
63654;BME280;49809;47.418;19.080;2023-07-30T18:02:47;100041.81;;;22.53;78.91
63654;BME280;49809;47.418;19.080;2023-07-30T18:06:12;100034.41;;;22.50;78.82
63654;BME280;49809;47.418;19.080;2023-07-30T18:09:32;100034.19;;;22.55;79.16
63654;BME280;49809;47.418;19.080;2023-07-30T18:12:54;100039.78;;;22.38;79.73
63654;BME280;49809;47.418;19.080;2023-07-30T18:16:22;100044.06;;;22.27;80.61
63654;BME280;49809;47.418;19.080;2023-07-30T18:19:48;100049.47;;;22.27;80.98
63654;BME280;49809;47.418;19.080;2023-07-30T18:23:13;100053.69;;;22.16;81.74
63654;BME280;49809;47.418;19.080;2023-07-30T18:26:40;100062.44;;;22.13;82.64
63654;BME280;49809;47.418;19.080;2023-07-30T18:30:18;100061.41;;;22.05;83.38
63654;BME280;49809;47.418;19.080;2023-07-30T18:33:40;100050.25;;;21.94;83.79
63654;BME280;49809;47.418;19.080;2023-07-30T18:37:22;100063.47;;;21.87;84.68
63654;BME280;49809;47.418;19.080;2023-07-30T18:41:02;100062.09;;;21.81;85.47
63654;BME280;49809;47.418;19.080;2023-07-30T18:44:33;100063.87;;;21.77;85.83
63654;BME280;49809;47.418;19.080;2023-07-30T18:47:56;100070.78;;;21.66;85.72
63654;BME280;49809;47.418;19.080;2023-07-30T18:51:37;100061.00;;;21.61;86.04
63654;BME280;49809;47.418;19.080;2023-07-30T18:55:04;100064.69;;;21.57;86.37
63654;BME280;49809;47.418;19.080;2023-07-30T18:58:31;100065.34;;;21.54;85.88
63654;BME280;49809;47.418;19.080;2023-07-30T19:01:54;100084.13;;;21.42;86.22
63654;BME280;49809;47.418;19.080;2023-07-30T19:05:28;100101.41;;;21.41;86.38
63654;BME280;49809;47.418;19.080;2023-07-30T19:08:48;100101.94;;;21.34;87.21
63654;BME280;49809;47.418;19.080;2023-07-30T19:12:21;100111.03;;;21.21;88.31
63654;BME280;49809;47.418;19.080;2023-07-30T19:15:47;100115.84;;;21.15;88.65
63654;BME280;49809;47.418;19.080;2023-07-30T19:19:18;100119.78;;;21.09;90.04
63654;BME280;49809;47.418;19.080;2023-07-30T19:22:47;100133.44;;;21.04;90.17
63654;BME280;49809;47.418;19.080;2023-07-30T19:26:24;100130.69;;;21.13;89.86
63654;BME280;49809;47.418;19.080;2023-07-30T19:29:57;100131.66;;;21.08;90.42
63654;BME280;49809;47.418;19.080;2023-07-30T19:33:39;100120.59;;;21.01;90.85
63654;BME280;49809;47.418;19.080;2023-07-30T19:36:58;100117.91;;;21.01;91.25
63654;BME280;49809;47.418;19.080;2023-07-30T19:40:38;100115.41;;;20.96;91.67
63654;BME280;49809;47.418;19.080;2023-07-30T19:44:10;100118.31;;;20.91;92.17
63654;BME280;49809;47.418;19.080;2023-07-30T19:47:32;100107.06;;;20.89;92.45
63654;BME280;49809;47.418;19.080;2023-07-30T19:51:06;100107.25;;;20.84;92.97
63654;BME280;49809;47.418;19.080;2023-07-30T19:54:30;100104.87;;;20.82;93.64
63654;BME280;49809;47.418;19.080;2023-07-30T19:57:47;100107.91;;;20.81;93.73
63654;BME280;49809;47.418;19.080;2023-07-30T20:01:21;100114.84;;;20.82;94.31
63654;BME280;49809;47.418;19.080;2023-07-30T20:04:49;100106.47;;;20.83;94.48
63654;BME280;49809;47.418;19.080;2023-07-30T20:08:22;100113.91;;;20.78;95.02
63654;BME280;49809;47.418;19.080;2023-07-30T20:11:56;100116.59;;;20.78;95.53
63654;BME280;49809;47.418;19.080;2023-07-30T20:15:13;100116.16;;;20.76;95.84
63654;BME280;49809;47.418;19.080;2023-07-30T20:18:40;100111.75;;;20.71;96.25
63654;BME280;49809;47.418;19.080;2023-07-30T20:22:13;100109.06;;;20.71;96.01
63654;BME280;49809;47.418;19.080;2023-07-30T20:25:57;100102.13;;;20.62;96.83
63654;BME280;49809;47.418;19.080;2023-07-30T20:29:15;100102.94;;;20.54;97.49
63654;BME280;49809;47.418;19.080;2023-07-30T20:32:47;100100.91;;;20.51;97.91
63654;BME280;49809;47.418;19.080;2023-07-30T20:36:21;100101.06;;;20.46;97.93
63654;BME280;49809;47.418;19.080;2023-07-30T20:39:50;100107.59;;;20.36;98.18
63654;BME280;49809;47.418;19.080;2023-07-30T20:43:19;100099.38;;;20.32;98.68
63654;BME280;49809;47.418;19.080;2023-07-30T20:46:52;100099.97;;;20.29;99.33
63654;BME280;49809;47.418;19.080;2023-07-30T20:50:20;100108.37;;;20.19;100.00
63654;BME280;49809;47.418;19.080;2023-07-30T20:53:44;100116.00;;;20.17;100.00
63654;BME280;49809;47.418;19.080;2023-07-30T20:57:18;100123.56;;;20.15;100.00
63654;BME280;49809;47.418;19.080;2023-07-30T21:00:53;100125.00;;;20.13;100.00
63654;BME280;49809;47.418;19.080;2023-07-30T21:04:28;100126.41;;;20.10;100.00
63654;BME280;49809;47.418;19.080;2023-07-30T21:07:53;100138.59;;;20.08;100.00
63654;BME280;49809;47.418;19.080;2023-07-30T21:11:24;100140.00;;;20.05;100.00
63654;BME280;49809;47.418;19.080;2023-07-30T21:15:02;100133.25;;;19.99;100.00
63654;BME280;49809;47.418;19.080;2023-07-30T21:18:44;100145.25;;;19.93;100.00
63654;BME280;49809;47.418;19.080;2023-07-30T21:22:02;100154.56;;;19.87;100.00
63654;BME280;49809;47.418;19.080;2023-07-30T21:25:36;100146.50;;;19.78;100.00
63654;BME280;49809;47.418;19.080;2023-07-30T21:29:04;100153.00;;;19.69;100.00
63654;BME280;49809;47.418;19.080;2023-07-30T21:32:33;100150.47;;;19.64;100.00
63654;BME280;49809;47.418;19.080;2023-07-30T21:36:08;100157.25;;;19.70;100.00
63654;BME280;49809;47.418;19.080;2023-07-30T21:39:36;100157.41;;;19.73;100.00
63654;BME280;49809;47.418;19.080;2023-07-30T21:43:05;100167.06;;;19.74;100.00
63654;BME280;49809;47.418;19.080;2023-07-30T21:46:36;100164.81;;;19.76;100.00
63654;BME280;49809;47.418;19.080;2023-07-30T21:50:11;100170.19;;;19.76;100.00
63654;BME280;49809;47.418;19.080;2023-07-30T21:53:38;100168.94;;;19.74;100.00
63654;BME280;49809;47.418;19.080;2023-07-30T21:57:14;100165.78;;;19.63;100.00
63654;BME280;49809;47.418;19.080;2023-07-30T22:00:46;100156.13;;;19.53;100.00
63654;BME280;49809;47.418;19.080;2023-07-30T22:04:13;100167.13;;;19.43;100.00
63654;BME280;49809;47.418;19.080;2023-07-30T22:07:41;100164.75;;;19.33;100.00
63654;BME280;49809;47.418;19.080;2023-07-30T22:11:14;100166.75;;;19.19;100.00